createdAt,value
2019-01-09T00:00:44.768Z,81.99
2019-01-09T00:03:13.554Z,82.03
2019-01-09T00:05:42.298Z,82.18
2019-01-09T00:08:10.875Z,82.12
2019-01-09T00:10:39.449Z,82.04
2019-01-09T00:13:08.004Z,82.10
2019-01-09T00:15:36.548Z,82.09
2019-01-09T00:18:05.363Z,82.01
2019-01-09T00:20:33.923Z,82.14
2019-01-09T00:23:02.547Z,82.21
2019-01-09T00:25:31.140Z,82.09
2019-01-09T00:27:59.775Z,82.07
2019-01-09T00:30:28.378Z,81.89
2019-01-09T00:32:56.911Z,81.57
2019-01-09T00:35:25.492Z,81.58
2019-01-09T00:37:54.013Z,81.77
2019-01-09T00:40:22.636Z,81.63
2019-01-09T00:42:51.241Z,81.61
2019-01-09T00:45:20.076Z,81.58
2019-01-09T00:47:48.675Z,81.60
2019-01-09T00:50:17.283Z,81.71
2019-01-09T00:52:45.902Z,81.93
2019-01-09T00:55:14.690Z,81.91
2019-01-09T00:57:43.183Z,81.64
2019-01-09T01:00:17.903Z,81.71
2019-01-09T01:02:58.742Z,81.79
2019-01-09T01:05:54.502Z,81.80
2019-01-09T01:08:50.319Z,81.76
2019-01-09T01:11:51.733Z,81.46
2019-01-09T01:14:38.204Z,81.42
2019-01-09T01:17:36.854Z,81.11
2019-01-09T01:20:11.150Z,81.04
2019-01-09T01:22:45.815Z,81.18
2019-01-09T01:25:38.272Z,81.14
2019-01-09T01:28:26.433Z,81.38
2019-01-09T01:31:20.403Z,81.17
2019-01-09T01:34:07.093Z,81.05
2019-01-09T01:36:56.937Z,81.11
2019-01-09T01:39:46.868Z,81.03
2019-01-09T01:42:54.832Z,80.86
2019-01-09T01:45:43.731Z,80.71
2019-01-09T01:48:36.537Z,80.64
2019-01-09T01:51:20.161Z,80.64
2019-01-09T01:53:51.676Z,80.70
2019-01-09T01:56:38.240Z,80.74
2019-01-09T01:59:21.820Z,80.71
2019-01-09T02:02:09.962Z,80.70
2019-01-09T02:04:44.744Z,80.73
2019-01-09T02:07:18.811Z,80.73
2019-01-09T02:09:52.983Z,80.83
2019-01-09T02:12:45.958Z,80.67
2019-01-09T02:15:20.385Z,80.82
2019-01-09T02:17:57.491Z,80.85
2019-01-09T02:20:28.992Z,80.87
2019-01-09T02:23:09.371Z,80.95
2019-01-09T02:25:52.684Z,81.16
2019-01-09T02:28:42.539Z,81.11
2019-01-09T02:31:47.227Z,81.03
2019-01-09T02:34:15.785Z,81.14
2019-01-09T02:36:44.228Z,81.06
2019-01-09T02:39:15.445Z,81.20
2019-01-09T02:41:43.867Z,81.18
2019-01-09T02:44:12.401Z,81.29
2019-01-09T02:46:40.898Z,81.15
2019-01-09T02:49:09.671Z,81.16
2019-01-09T02:51:38.185Z,81.13
2019-01-09T02:54:06.709Z,81.03
2019-01-09T02:56:35.147Z,81.22
2019-01-09T02:59:03.837Z,81.52
2019-01-09T03:01:32.324Z,81.36
2019-01-09T03:04:00.837Z,81.39
2019-01-09T03:06:29.416Z,81.39
2019-01-09T03:08:57.926Z,81.43
2019-01-09T03:11:26.629Z,81.54
2019-01-09T03:13:55.107Z,81.47
2019-01-09T03:16:23.658Z,81.27
2019-01-09T03:18:52.079Z,81.33
2019-01-09T03:21:22.460Z,81.46
2019-01-09T03:23:50.862Z,81.55
2019-01-09T03:26:19.414Z,81.53
2019-01-09T03:28:48.155Z,81.35
2019-01-09T03:31:16.626Z,81.47
2019-01-09T03:33:45.242Z,81.57
2019-01-09T03:36:13.749Z,81.62
2019-01-09T03:38:42.404Z,81.83
2019-01-09T03:41:10.852Z,81.97
2019-01-09T03:43:39.561Z,82.14
2019-01-09T03:46:08.152Z,82.21
2019-01-09T03:48:36.694Z,82.29
2019-01-09T03:51:05.232Z,82.41
2019-01-09T03:53:33.647Z,82.56
2019-01-09T03:56:02.276Z,82.72
2019-01-09T03:58:30.847Z,82.90
2019-01-09T04:00:59.301Z,82.93
2019-01-09T04:03:27.816Z,82.80
2019-01-09T04:05:56.368Z,82.89
2019-01-09T04:08:24.845Z,82.89
2019-01-09T04:10:53.377Z,82.94
2019-01-09T04:13:22.096Z,83.01
2019-01-09T04:15:50.713Z,83.14
2019-01-09T04:18:19.278Z,83.01
2019-01-09T04:20:47.713Z,83.09
2019-01-09T04:23:16.225Z,83.16
2019-01-09T04:25:44.762Z,83.19
2019-01-09T04:28:13.336Z,83.29
2019-01-09T04:30:41.917Z,83.30
2019-01-09T04:33:10.524Z,83.29
2019-01-09T04:35:39.111Z,83.38
2019-01-09T04:38:07.550Z,83.38
2019-01-09T04:40:36.221Z,83.50
2019-01-09T04:43:04.745Z,83.54
2019-01-09T04:45:33.243Z,83.60
2019-01-09T04:48:01.799Z,83.71
2019-01-09T04:50:30.347Z,83.84
2019-01-09T04:52:58.866Z,83.93
2019-01-09T04:55:27.280Z,84.00
2019-01-09T04:57:55.961Z,84.05
2019-01-09T05:00:24.558Z,84.21
2019-01-09T05:02:53.088Z,84.38
2019-01-09T05:05:21.591Z,84.47
2019-01-09T05:07:50.107Z,84.37
2019-01-09T05:10:18.561Z,84.26
2019-01-09T05:12:46.981Z,84.30
2019-01-09T05:15:15.667Z,84.41
2019-01-09T05:17:44.117Z,84.51
2019-01-09T05:20:12.755Z,84.47
2019-01-09T05:22:41.722Z,84.52
2019-01-09T05:25:11.880Z,84.48
2019-01-09T05:27:40.378Z,84.39
2019-01-09T05:30:09.042Z,84.37
2019-01-09T05:32:37.555Z,84.33
2019-01-09T05:35:06.138Z,84.29
2019-01-09T05:37:34.692Z,84.22
2019-01-09T05:40:06.193Z,84.32
2019-01-09T05:42:34.607Z,84.31
2019-01-09T05:45:03.046Z,84.14
2019-01-09T05:47:31.470Z,84.18
2019-01-09T05:49:59.938Z,84.21
2019-01-09T05:52:28.395Z,84.27
2019-01-09T05:54:57.089Z,84.29
2019-01-09T05:57:25.487Z,84.44
2019-01-09T05:59:54.004Z,84.40
2019-01-09T06:02:22.424Z,84.52
2019-01-09T06:04:50.863Z,84.67
2019-01-09T06:07:19.394Z,84.70
2019-01-09T06:09:47.852Z,84.84
2019-01-09T06:12:16.282Z,84.78
2019-01-09T06:14:44.713Z,84.77
2019-01-09T06:17:13.175Z,84.77
2019-01-09T06:19:41.596Z,84.80
2019-01-09T06:22:10.603Z,84.86
2019-01-09T06:24:39.010Z,84.93
2019-01-09T06:27:07.455Z,85.08
2019-01-09T06:29:35.955Z,85.09
2019-01-09T06:32:04.471Z,85.06
2019-01-09T06:34:33.532Z,85.14
2019-01-09T06:37:01.985Z,85.14
2019-01-09T06:39:30.558Z,85.26
2019-01-09T06:41:59.490Z,85.33
2019-01-09T06:44:27.901Z,85.47
2019-01-09T06:46:56.599Z,85.46
2019-01-09T06:49:25.019Z,85.47
2019-01-09T06:51:53.460Z,85.53
2019-01-09T06:54:21.906Z,85.57
2019-01-09T06:56:50.383Z,85.63
2019-01-09T06:59:19.107Z,85.61
2019-01-09T07:01:47.556Z,85.59
2019-01-09T07:04:16.075Z,85.65
2019-01-09T07:06:44.498Z,85.71
2019-01-09T07:09:13.125Z,85.82
2019-01-09T07:11:41.562Z,85.81
2019-01-09T07:14:10.089Z,85.84
2019-01-09T07:16:38.587Z,85.90
2019-01-09T07:19:07.117Z,86.02
2019-01-09T07:21:35.611Z,86.08
2019-01-09T07:24:04.243Z,85.99
2019-01-09T07:26:32.745Z,85.80
2019-01-09T07:29:01.192Z,85.87
2019-01-09T07:31:29.737Z,85.96
2019-01-09T07:33:59.240Z,85.82
2019-01-09T07:36:27.789Z,85.76
2019-01-09T07:38:56.219Z,85.67
2019-01-09T07:41:24.654Z,85.67
2019-01-09T07:43:53.064Z,85.79
2019-01-09T07:46:21.503Z,85.66
2019-01-09T07:48:49.927Z,85.69
2019-01-09T07:51:18.395Z,85.68
2019-01-09T07:53:46.869Z,85.59
2019-01-09T07:56:15.329Z,85.72
2019-01-09T07:58:43.735Z,85.73
2019-01-09T08:01:12.182Z,85.57
2019-01-09T08:03:40.593Z,85.48
2019-01-09T08:06:09.212Z,85.44
2019-01-09T08:08:37.639Z,85.60
2019-01-09T08:11:06.248Z,85.58
2019-01-09T08:13:34.661Z,85.54
2019-01-09T08:16:03.169Z,85.57
2019-01-09T08:18:31.588Z,85.66
2019-01-09T08:21:05.271Z,85.72
2019-01-09T08:23:30.270Z,85.71
2019-01-09T08:25:59.230Z,85.71
2019-01-09T08:28:27.639Z,85.74
2019-01-09T08:30:56.092Z,85.78
2019-01-09T08:33:24.500Z,85.85
2019-01-09T08:35:52.955Z,85.82
2019-01-09T08:38:21.443Z,85.82
2019-01-09T08:40:50.248Z,85.60
2019-01-09T08:43:18.757Z,85.52
2019-01-09T08:45:47.278Z,85.62
2019-01-09T08:48:15.741Z,85.69
2019-01-09T08:50:44.146Z,85.57
2019-01-09T08:53:12.781Z,85.66
2019-01-09T08:55:41.300Z,85.64
2019-01-09T08:58:09.744Z,85.54
2019-01-09T09:00:38.158Z,85.46
2019-01-09T09:03:06.908Z,85.36
2019-01-09T09:05:35.344Z,85.24
2019-01-09T09:08:11.984Z,85.17
2019-01-09T09:10:34.336Z,85.11
2019-01-09T09:13:02.848Z,85.12
2019-01-09T09:15:31.295Z,85.01
2019-01-09T09:17:59.742Z,84.79
2019-01-09T09:20:28.217Z,84.76
2019-01-09T09:22:56.666Z,84.76
2019-01-09T09:25:25.072Z,84.55
2019-01-09T09:27:53.904Z,84.51
2019-01-09T09:30:22.474Z,84.45
2019-01-09T09:32:51.206Z,84.33
2019-01-09T09:35:19.770Z,84.09
2019-01-09T09:37:48.176Z,83.91
2019-01-09T09:40:19.375Z,83.68
2019-01-09T09:42:47.872Z,83.59
2019-01-09T09:45:16.546Z,83.56
2019-01-09T09:47:45.011Z,83.44
2019-01-09T09:50:15.994Z,83.45
2019-01-09T09:52:44.564Z,83.40
2019-01-09T09:55:13.406Z,83.35
2019-01-09T09:57:41.817Z,83.18
2019-01-09T10:00:13.314Z,82.88
2019-01-09T10:02:41.720Z,82.79
2019-01-09T10:05:10.323Z,82.65
2019-01-09T10:07:38.816Z,82.19
2019-01-09T10:10:10.572Z,81.56
2019-01-09T10:12:39.058Z,81.68
2019-01-09T10:15:13.323Z,81.52
2019-01-09T10:17:42.148Z,81.58
2019-01-09T10:20:15.829Z,81.56
2019-01-09T10:22:45.259Z,81.12
2019-01-09T10:25:13.849Z,80.29
2019-01-09T10:27:42.341Z,80.28
2019-01-09T10:30:14.293Z,80.48
2019-01-09T10:32:42.724Z,80.38
2019-01-09T10:35:11.462Z,79.77
2019-01-09T10:37:40.065Z,79.81
2019-01-09T10:40:11.927Z,79.90
2019-01-09T10:42:40.462Z,79.64
2019-01-09T10:45:12.093Z,79.58
2019-01-09T10:47:40.529Z,79.58
2019-01-09T10:50:12.199Z,79.42
2019-01-09T10:52:40.679Z,78.22
2019-01-09T10:55:11.244Z,77.90
2019-01-09T10:57:39.730Z,76.70
2019-01-09T11:00:11.204Z,75.69
2019-01-09T11:02:39.736Z,75.76
2019-01-09T11:05:10.329Z,74.57
2019-01-09T11:07:38.784Z,74.45
2019-01-09T11:10:10.262Z,74.59
2019-01-09T11:12:38.754Z,74.12
2019-01-09T11:15:08.919Z,73.23
2019-01-09T11:17:37.598Z,72.94
2019-01-09T11:20:09.098Z,73.08
2019-01-09T11:22:37.563Z,72.12
2019-01-09T11:25:09.058Z,71.76
2019-01-09T11:27:37.504Z,70.53
2019-01-09T11:30:08.989Z,70.25
2019-01-09T11:32:37.919Z,70.27
2019-01-09T11:35:09.538Z,70.07
2019-01-09T11:37:39.721Z,69.75
2019-01-09T11:40:10.776Z,69.75
2019-01-09T11:42:39.295Z,68.49
2019-01-09T11:45:10.847Z,67.49
2019-01-09T11:47:39.371Z,66.38
2019-01-09T11:50:10.942Z,66.64
2019-01-09T11:52:39.358Z,66.16
2019-01-09T11:55:09.937Z,63.94
2019-01-09T11:57:38.553Z,63.28
2019-01-09T12:00:10.066Z,63.28
2019-01-09T12:02:38.555Z,63.51
2019-01-09T12:05:08.456Z,62.99
2019-01-09T12:07:36.970Z,62.52
2019-01-09T12:10:11.662Z,62.52
2019-01-09T12:12:40.332Z,62.36
2019-01-09T12:15:11.247Z,61.85
2019-01-09T12:17:39.889Z,60.93
2019-01-09T12:20:11.404Z,60.67
2019-01-09T12:22:40.088Z,59.84
2019-01-09T12:25:09.973Z,59.78
2019-01-09T12:27:38.396Z,60.29
2019-01-09T12:30:21.658Z,58.05
2019-01-09T12:32:50.168Z,59.19
2019-01-09T12:35:18.714Z,58.84
2019-01-09T12:37:47.289Z,58.84
2019-01-09T12:40:16.116Z,59.30
2019-01-09T12:42:44.555Z,59.39
2019-01-09T12:45:17.363Z,59.39
2019-01-09T12:47:46.020Z,59.96
2019-01-09T12:50:20.224Z,60.24
2019-01-09T12:52:49.013Z,60.20
2019-01-09T12:55:17.518Z,60.09
2019-01-09T12:57:46.090Z,60.02
2019-01-09T13:00:20.079Z,60.82
2019-01-09T13:02:49.428Z,61.14
2019-01-09T13:05:18.183Z,60.66
2019-01-09T13:07:47.006Z,60.66
2019-01-09T13:10:15.562Z,60.76
2019-01-09T13:12:44.152Z,60.81
2019-01-09T13:15:13.032Z,61.09
2019-01-09T13:17:41.461Z,61.36
2019-01-09T13:20:12.530Z,61.55
2019-01-09T13:22:41.327Z,61.43
2019-01-09T13:25:11.175Z,61.40
2019-01-09T13:27:39.756Z,61.76
2019-01-09T13:30:13.753Z,61.91
2019-01-09T13:32:42.350Z,62.00
2019-01-09T13:35:11.345Z,61.81
2019-01-09T13:37:39.794Z,62.19
2019-01-09T13:40:14.135Z,61.96
2019-01-09T13:42:42.711Z,61.69
2019-01-09T13:45:14.189Z,61.72
2019-01-09T13:47:43.077Z,60.87
2019-01-09T13:50:14.156Z,61.16
2019-01-09T13:52:42.700Z,61.66
2019-01-09T13:55:13.147Z,61.67
2019-01-09T13:57:41.633Z,61.32
2019-01-09T14:00:21.251Z,61.22
2019-01-09T14:02:49.835Z,60.88
2019-01-09T14:05:18.551Z,61.08
2019-01-09T14:07:48.747Z,60.84
2019-01-09T14:10:19.529Z,61.38
2019-01-09T14:12:48.475Z,61.41
2019-01-09T14:15:19.711Z,61.34
2019-01-09T14:17:48.478Z,61.12
2019-01-09T14:20:17.476Z,60.84
2019-01-09T14:22:46.874Z,60.63
2019-01-09T14:25:16.890Z,60.83
2019-01-09T14:27:45.548Z,60.90
2019-01-09T14:30:21.851Z,60.07
2019-01-09T14:32:50.441Z,59.56
2019-01-09T14:35:18.956Z,59.26
2019-01-09T14:37:47.559Z,59.32
2019-01-09T14:40:18.479Z,59.17
2019-01-09T14:42:47.002Z,59.30
2019-01-09T14:45:16.902Z,59.76
2019-01-09T14:47:45.429Z,60.04
2019-01-09T14:50:19.178Z,59.80
2019-01-09T14:52:47.678Z,60.19
2019-01-09T14:55:16.476Z,60.49
2019-01-09T14:57:45.678Z,60.38
2019-01-09T15:00:20.180Z,59.68
2019-01-09T15:02:48.863Z,59.88
2019-01-09T15:05:17.634Z,60.28
2019-01-09T15:07:46.424Z,60.43
2019-01-09T15:10:19.841Z,59.48
2019-01-09T15:12:48.500Z,59.66
2019-01-09T15:15:17.961Z,59.94
2019-01-09T15:17:46.910Z,59.84
2019-01-09T15:20:17.265Z,60.10
2019-01-09T15:22:45.779Z,60.55
2019-01-09T15:25:15.349Z,60.70
2019-01-09T15:27:43.935Z,60.58
2019-01-09T15:30:20.916Z,60.90
2019-01-09T15:32:49.615Z,60.94
2019-01-09T15:35:18.047Z,61.07
2019-01-09T15:37:46.648Z,61.21
2019-01-09T15:40:20.828Z,61.01
2019-01-09T15:42:50.135Z,61.26
2019-01-09T15:45:18.691Z,61.37
2019-01-09T15:47:47.272Z,61.36
2019-01-09T15:50:24.054Z,61.73
2019-01-09T15:52:52.660Z,61.89
2019-01-09T15:55:21.866Z,62.11
2019-01-09T15:57:54.368Z,62.09
2019-01-09T16:00:28.090Z,62.34
2019-01-09T16:02:56.706Z,62.45
2019-01-09T16:05:25.868Z,62.59
2019-01-09T16:07:54.472Z,62.97
2019-01-09T16:10:24.009Z,63.47
2019-01-09T16:12:52.485Z,63.54
2019-01-09T16:15:21.076Z,63.67
2019-01-09T16:17:49.746Z,63.77
2019-01-09T16:20:19.949Z,64.12
2019-01-09T16:22:48.532Z,64.15
2019-01-09T16:25:17.054Z,64.02
2019-01-09T16:27:45.607Z,64.11
2019-01-09T16:30:34.206Z,64.48
2019-01-09T16:32:59.646Z,64.73
2019-01-09T16:35:30.956Z,64.81
2019-01-09T16:37:59.593Z,65.18
2019-01-09T16:40:28.223Z,65.31
2019-01-09T16:42:56.744Z,65.31
2019-01-09T16:45:25.265Z,65.49
2019-01-09T16:47:53.784Z,65.57
2019-01-09T16:50:23.668Z,65.69
2019-01-09T16:52:52.155Z,65.54
2019-01-09T16:55:20.759Z,65.57
2019-01-09T16:57:49.346Z,65.68
2019-01-09T17:00:20.864Z,65.80
2019-01-09T17:02:49.982Z,65.85
2019-01-09T17:05:18.937Z,65.80
2019-01-09T17:07:47.609Z,65.79
2019-01-09T17:10:17.489Z,65.77
2019-01-09T17:12:46.041Z,65.86
2019-01-09T17:15:18.757Z,65.85
2019-01-09T17:17:47.762Z,66.01
2019-01-09T17:20:19.185Z,66.09
2019-01-09T17:22:47.770Z,66.15
2019-01-09T17:25:16.359Z,66.16
2019-01-09T17:27:45.046Z,66.39
2019-01-09T17:30:19.117Z,66.50
2019-01-09T17:32:47.710Z,66.59
2019-01-09T17:35:16.194Z,66.67
2019-01-09T17:37:44.820Z,66.64
2019-01-09T17:40:16.295Z,66.72
2019-01-09T17:42:44.945Z,66.78
2019-01-09T17:45:14.134Z,66.99
2019-01-09T17:47:43.111Z,67.10
2019-01-09T17:50:23.260Z,67.18
2019-01-09T17:52:51.855Z,67.29
2019-01-09T17:55:20.382Z,67.28
2019-01-09T17:57:48.891Z,67.34
2019-01-09T18:00:20.431Z,67.43
2019-01-09T18:02:49.045Z,67.53
2019-01-09T18:05:17.897Z,67.75
2019-01-09T18:07:46.437Z,67.69
2019-01-09T18:10:23.381Z,67.54
2019-01-09T18:12:51.929Z,67.72
2019-01-09T18:15:22.403Z,67.54
2019-01-09T18:17:51.200Z,67.52
2019-01-09T18:20:21.721Z,67.70
2019-01-09T18:22:50.597Z,67.70
2019-01-09T18:25:21.496Z,67.80
2019-01-09T18:27:50.019Z,67.83
2019-01-09T18:30:21.479Z,68.01
2019-01-09T18:32:52.945Z,68.03
2019-01-09T18:35:33.411Z,68.22
2019-01-09T18:38:32.420Z,68.12
2019-01-09T18:41:24.569Z,68.13
2019-01-09T18:43:58.924Z,68.31
2019-01-09T18:46:53.188Z,68.33
2019-01-09T18:49:42.955Z,68.33
2019-01-09T18:52:17.284Z,68.47
2019-01-09T18:54:45.849Z,68.55
2019-01-09T18:57:14.351Z,68.63
2019-01-09T18:59:42.938Z,68.79
2019-01-09T19:02:11.733Z,68.93
2019-01-09T19:04:40.581Z,68.95
2019-01-09T19:07:09.259Z,68.96
2019-01-09T19:09:37.766Z,68.93
2019-01-09T19:12:06.700Z,68.88
2019-01-09T19:14:35.793Z,69.01
2019-01-09T19:17:05.018Z,69.10
2019-01-09T19:19:34.140Z,69.17
2019-01-09T19:22:02.763Z,69.42
2019-01-09T19:24:31.320Z,69.53
2019-01-09T19:26:59.952Z,69.51
2019-01-09T19:29:28.522Z,69.66
2019-01-09T19:31:57.153Z,69.74
2019-01-09T19:34:25.732Z,69.88
2019-01-09T19:36:54.172Z,69.97
2019-01-09T19:39:22.791Z,70.04
2019-01-09T19:41:51.280Z,70.10
2019-01-09T19:44:19.863Z,70.18
2019-01-09T19:46:48.422Z,69.99
2019-01-09T19:49:17.059Z,70.16
2019-01-09T19:51:45.852Z,70.27
2019-01-09T19:54:14.550Z,70.28
2019-01-09T19:56:43.097Z,70.25
2019-01-09T19:59:11.770Z,69.98
2019-01-09T20:01:40.273Z,70.27
2019-01-09T20:04:08.887Z,70.22
2019-01-09T20:06:37.478Z,70.33
2019-01-09T20:09:08.373Z,70.56
2019-01-09T20:11:37.067Z,70.72
2019-01-09T20:14:05.860Z,71.01
2019-01-09T20:16:34.439Z,71.14
2019-01-09T20:19:03.137Z,71.21
2019-01-09T20:21:31.776Z,71.20
2019-01-09T20:24:00.575Z,71.21
2019-01-09T20:26:29.049Z,71.28
2019-01-09T20:28:57.581Z,71.45
2019-01-09T20:31:26.217Z,71.46
2019-01-09T20:33:54.899Z,71.42
2019-01-09T20:36:23.651Z,71.97
2019-01-09T20:38:52.408Z,72.05
2019-01-09T20:41:21.133Z,71.78
2019-01-09T20:43:49.659Z,71.77
2019-01-09T20:46:18.249Z,71.68
2019-01-09T20:48:46.762Z,71.67
2019-01-09T20:51:15.490Z,71.65
2019-01-09T20:53:44.157Z,71.80
2019-01-09T20:56:12.901Z,72.00
2019-01-09T20:58:42.507Z,71.93
2019-01-09T21:01:11.476Z,72.02
2019-01-09T21:03:40.198Z,71.97
2019-01-09T21:06:09.136Z,72.02
2019-01-09T21:08:37.662Z,72.16
2019-01-09T21:11:06.296Z,72.23
2019-01-09T21:13:34.820Z,72.28
2019-01-09T21:16:03.635Z,72.40
2019-01-09T21:18:32.184Z,72.61
2019-01-09T21:21:00.773Z,72.64
2019-01-09T21:23:29.442Z,72.67
2019-01-09T21:25:59.744Z,72.71
2019-01-09T21:28:28.412Z,72.86
2019-01-09T21:30:56.901Z,72.80
2019-01-09T21:33:25.506Z,72.85
2019-01-09T21:35:54.085Z,72.93
2019-01-09T21:38:22.623Z,73.02
2019-01-09T21:40:52.776Z,72.96
2019-01-09T21:43:21.392Z,72.80
2019-01-09T21:45:49.921Z,72.72
2019-01-09T21:48:18.368Z,72.89
2019-01-09T21:50:46.986Z,72.91
2019-01-09T21:53:17.158Z,73.20
2019-01-09T21:55:45.977Z,73.25
2019-01-09T21:58:16.044Z,73.28
2019-01-09T22:00:44.723Z,73.22
2019-01-09T22:03:13.388Z,73.38
2019-01-09T22:05:41.980Z,73.40
2019-01-09T22:08:10.570Z,73.52
2019-01-09T22:10:39.266Z,73.54
2019-01-09T22:13:07.872Z,73.64
2019-01-09T22:15:36.676Z,73.67
2019-01-09T22:18:05.449Z,73.83
2019-01-09T22:20:33.965Z,73.97
2019-01-09T22:23:02.710Z,74.03
2019-01-09T22:25:31.253Z,73.92
2019-01-09T22:27:59.826Z,73.80
2019-01-09T22:30:28.982Z,73.91
2019-01-09T22:32:57.711Z,73.89
2019-01-09T22:35:26.253Z,74.07
2019-01-09T22:37:54.747Z,74.18
2019-01-09T22:40:23.560Z,74.21
2019-01-09T22:42:52.235Z,74.16
2019-01-09T22:45:20.964Z,73.96
2019-01-09T22:47:49.541Z,74.17
2019-01-09T22:50:20.169Z,74.18
2019-01-09T22:52:48.844Z,74.12
2019-01-09T22:55:17.324Z,73.93
2019-01-09T22:57:46.018Z,74.08
2019-01-09T23:00:37.613Z,74.20
2019-01-09T23:03:09.688Z,74.20
2019-01-09T23:05:38.558Z,74.11
2019-01-09T23:08:07.224Z,74.12
2019-01-09T23:10:36.270Z,74.21
2019-01-09T23:13:05.162Z,74.19
2019-01-09T23:15:34.120Z,74.22
2019-01-09T23:18:02.843Z,74.31
2019-01-09T23:20:31.440Z,74.45
2019-01-09T23:23:00.007Z,74.56
2019-01-09T23:25:28.594Z,74.49
2019-01-09T23:27:57.114Z,74.77
2019-01-09T23:30:25.812Z,74.77
2019-01-09T23:32:54.427Z,74.83
2019-01-09T23:35:22.967Z,74.74
2019-01-09T23:37:51.562Z,74.65
2019-01-09T23:40:20.118Z,74.65
2019-01-09T23:42:49.187Z,74.36
2019-01-09T23:45:17.848Z,74.49
2019-01-09T23:47:46.479Z,74.56
2019-01-09T23:50:15.190Z,74.40
2019-01-09T23:52:46.579Z,74.37
2019-01-09T23:55:15.181Z,74.46
2019-01-09T23:57:43.727Z,74.50
